Spry, Pennsylvania
Current Conditions -  °F | °C
As of 7:53 PM on Friday 24 Oct 2014 (Local Time) from KTHV Reporting Station
Clear Clear  
Wind Chill: 55°   Ceiling: Unl
Heat Index: 55°   Visibility: 10mi
Dew Point: 36°   Wind: 7mph
Humidity: 49%   Direction: 280°W
Pressure: 29.91"   Gusts: NA
Location:  39.9768°N, 76.6853°W
Report Text: KTHV 242353Z AUTO 28006KT 10SM CLR 13/02 A2991 RMK AO2 SLP132 T01280022 10206 20111 53013
Loading
Personal Weather Stations






























Interactive Weather Map
Tropical Storm Tracking
New forecast layout! Learn more

10-Day Weather Forecast

Advertisements
Track Severe Weather on mobile